createdAt,value
2022-10-25T00:01:28.962Z,11.00
2022-10-25T00:03:56.934Z,11.00
2022-10-25T00:06:24.413Z,11.00
2022-10-25T00:08:51.524Z,11.00
2022-10-25T00:11:28.097Z,11.00
2022-10-25T00:13:57.502Z,11.00
2022-10-25T00:16:27.624Z,11.00
2022-10-25T00:18:55.097Z,10.90
2022-10-25T00:21:22.258Z,10.90
2022-10-25T00:23:50.273Z,10.90
2022-10-25T00:26:17.775Z,10.80
2022-10-25T00:28:44.685Z,10.90
2022-10-25T00:31:14.537Z,10.90
2022-10-25T00:33:42.480Z,10.80
2022-10-25T00:36:12.434Z,10.80
2022-10-25T00:38:39.803Z,10.50
2022-10-25T00:41:07.855Z,10.30
2022-10-25T00:43:54.066Z,10.20
2022-10-25T00:46:21.121Z,10.20
2022-10-25T00:49:03.142Z,10.10
2022-10-25T00:51:52.733Z,10.00
2022-10-25T00:54:26.752Z,10.00
2022-10-25T00:56:54.957Z,10.00
2022-10-25T00:59:26.578Z,9.80
2022-10-25T01:01:57.629Z,9.80
2022-10-25T01:04:31.279Z,9.80
2022-10-25T01:06:59.143Z,9.80
2022-10-25T01:09:29.723Z,9.80
2022-10-25T01:11:56.649Z,9.80
2022-10-25T01:14:24.061Z,9.80
2022-10-25T01:17:24.624Z,9.90
2022-10-25T01:20:30.269Z,10.00
2022-10-25T01:23:31.335Z,10.10
2022-10-25T01:26:10.351Z,10.20
2022-10-25T01:29:14.460Z,10.10
2022-10-25T01:32:11.302Z,10.30
2022-10-25T01:35:15.729Z,10.40
2022-10-25T01:38:00.918Z,10.30
2022-10-25T01:41:05.243Z,10.20
2022-10-25T01:43:51.786Z,10.10
2022-10-25T01:46:24.097Z,10.10
2022-10-25T01:49:09.041Z,10.00
2022-10-25T01:51:37.562Z,10.10
2022-10-25T01:54:26.592Z,10.10
2022-10-25T01:57:17.641Z,10.10
2022-10-25T01:59:56.456Z,9.90
2022-10-25T02:02:30.641Z,9.60
2022-10-25T02:05:14.832Z,9.60
2022-10-25T02:07:44.324Z,9.50
2022-10-25T02:10:24.815Z,9.50
2022-10-25T02:13:13.476Z,9.60
2022-10-25T02:15:49.010Z,9.50
2022-10-25T02:18:21.290Z,9.50
2022-10-25T02:20:50.645Z,9.50
2022-10-25T02:23:18.822Z,9.50
2022-10-25T02:25:47.157Z,9.40
2022-10-25T02:28:16.978Z,9.40
2022-10-25T02:30:45.160Z,9.30
2022-10-25T02:33:12.583Z,9.40
2022-10-25T02:35:39.930Z,9.50
2022-10-25T02:38:07.241Z,9.40
2022-10-25T02:40:34.827Z,9.50
2022-10-25T02:43:02.108Z,9.50
2022-10-25T02:45:29.437Z,9.40
2022-10-25T02:47:56.558Z,9.40
2022-10-25T02:50:23.708Z,9.40
2022-10-25T02:52:50.890Z,9.50
2022-10-25T02:55:17.826Z,9.40
2022-10-25T02:57:44.693Z,9.40
2022-10-25T03:02:40.121Z,9.30
2022-10-25T03:05:07.272Z,9.20
2022-10-25T03:07:34.145Z,9.30
2022-10-25T03:10:01.031Z,9.30
2022-10-25T03:12:27.910Z,9.30
2022-10-25T03:14:54.803Z,9.20
2022-10-25T03:17:21.697Z,9.30
2022-10-25T03:19:48.555Z,9.30
2022-10-25T03:22:15.456Z,9.20
2022-10-25T03:24:42.361Z,9.20
2022-10-25T03:27:09.340Z,9.10
2022-10-25T03:29:36.233Z,9.10
2022-10-25T03:32:05.552Z,9.10
2022-10-25T03:34:32.546Z,9.10
2022-10-25T03:36:59.500Z,9.00
2022-10-25T03:39:26.543Z,8.90
2022-10-25T03:41:53.441Z,8.90
2022-10-25T03:44:20.513Z,8.80
2022-10-25T03:46:47.388Z,8.80
2022-10-25T03:49:14.294Z,8.60
2022-10-25T03:51:41.211Z,8.40
2022-10-25T03:54:08.077Z,8.40
2022-10-25T03:56:34.974Z,8.50
2022-10-25T03:59:01.861Z,8.70
2022-10-25T04:01:28.901Z,8.70
2022-10-25T04:03:55.912Z,8.70
2022-10-25T04:06:24.309Z,8.60
2022-10-25T04:08:51.202Z,8.60
2022-10-25T04:11:18.094Z,8.60
2022-10-25T04:13:44.990Z,8.50
2022-10-25T04:16:13.826Z,8.50
2022-10-25T04:18:42.695Z,8.50
2022-10-25T04:21:09.622Z,8.60
2022-10-25T04:23:36.548Z,8.60
2022-10-25T04:26:03.465Z,8.50
2022-10-25T04:28:30.403Z,8.30
2022-10-25T04:30:57.290Z,8.20
2022-10-25T04:33:24.178Z,8.30
2022-10-25T04:35:56.528Z,8.40
2022-10-25T04:38:24.480Z,8.50
2022-10-25T04:40:56.323Z,8.40
2022-10-25T04:43:23.967Z,8.40
2022-10-25T04:45:51.274Z,8.40
2022-10-25T04:48:18.749Z,8.50
2022-10-25T04:50:45.707Z,8.60
2022-10-25T04:53:12.751Z,8.70
2022-10-25T04:55:40.157Z,8.80
2022-10-25T04:58:07.073Z,8.90
2022-10-25T05:00:34.004Z,9.00
2022-10-25T05:03:01.018Z,9.10
2022-10-25T05:05:28.364Z,9.10
2022-10-25T05:07:55.267Z,9.20
2022-10-25T05:10:22.227Z,9.20
2022-10-25T05:12:49.319Z,9.30
2022-10-25T05:15:16.447Z,9.30
2022-10-25T05:17:43.333Z,9.30
2022-10-25T05:20:10.671Z,9.30
2022-10-25T05:22:37.592Z,9.40
2022-10-25T05:25:05.244Z,9.30
2022-10-25T05:27:32.367Z,9.30
2022-10-25T05:29:59.430Z,9.30
2022-10-25T05:32:26.395Z,9.20
2022-10-25T05:34:53.367Z,9.10
2022-10-25T05:37:20.237Z,9.00
2022-10-25T05:39:47.091Z,8.90
2022-10-25T05:42:13.999Z,8.80
2022-10-25T05:44:40.874Z,8.80
2022-10-25T05:47:07.784Z,8.80
2022-10-25T05:49:39.686Z,8.70
2022-10-25T05:52:07.305Z,8.60
2022-10-25T05:54:34.339Z,8.60
2022-10-25T05:57:01.331Z,8.50
2022-10-25T05:59:28.179Z,8.60
2022-10-25T06:01:55.216Z,8.60
2022-10-25T06:04:22.892Z,8.60
2022-10-25T06:06:52.530Z,8.60
2022-10-25T06:09:19.455Z,8.70
2022-10-25T06:11:46.446Z,8.70
2022-10-25T06:14:13.498Z,8.70
2022-10-25T06:16:40.571Z,8.80
2022-10-25T06:19:07.873Z,8.80
2022-10-25T06:21:34.995Z,8.90
2022-10-25T06:24:02.467Z,8.90
2022-10-25T06:26:30.668Z,8.90
2022-10-25T06:29:00.179Z,8.90
2022-10-25T06:31:28.104Z,8.90
2022-10-25T06:33:55.174Z,8.90
2022-10-25T06:36:24.612Z,8.70
2022-10-25T06:38:51.876Z,8.70
2022-10-25T06:41:28.068Z,8.80
2022-10-25T06:43:55.703Z,8.80
2022-10-25T06:46:33.907Z,8.80
2022-10-25T06:49:02.266Z,8.90
2022-10-25T06:51:29.909Z,9.00
2022-10-25T06:54:01.727Z,9.00
2022-10-25T06:56:29.255Z,9.00
2022-10-25T06:58:56.613Z,9.00
2022-10-25T07:01:25.381Z,8.90
2022-10-25T07:03:56.294Z,9.00
2022-10-25T07:06:29.349Z,8.80
2022-10-25T07:08:58.998Z,8.80
2022-10-25T07:11:27.585Z,8.80
2022-10-25T07:13:56.184Z,8.70
2022-10-25T07:16:23.324Z,8.60
2022-10-25T07:18:50.302Z,8.60
2022-10-25T07:21:20.307Z,8.50
2022-10-25T07:23:48.293Z,8.50
2022-10-25T07:26:34.958Z,8.40
2022-10-25T07:29:04.129Z,8.90
2022-10-25T07:31:33.773Z,9.20
2022-10-25T07:34:02.366Z,9.50
2022-10-25T07:36:29.353Z,9.60
2022-10-25T07:38:57.134Z,9.50
2022-10-25T07:41:25.092Z,9.30
2022-10-25T07:43:52.116Z,9.30
2022-10-25T07:46:19.093Z,9.10
2022-10-25T07:48:46.015Z,9.00
2022-10-25T07:51:15.342Z,8.90
2022-10-25T07:53:42.644Z,8.90
2022-10-25T07:56:17.573Z,8.90
2022-10-25T07:58:47.885Z,8.90
2022-10-25T08:01:20.754Z,8.80
2022-10-25T08:03:47.720Z,8.70
2022-10-25T08:06:14.693Z,8.70
2022-10-25T08:08:41.626Z,9.00
2022-10-25T08:11:08.667Z,9.20
2022-10-25T08:13:37.580Z,9.40
2022-10-25T08:16:05.755Z,9.40
2022-10-25T08:18:33.294Z,9.50
2022-10-25T08:21:03.599Z,9.60
2022-10-25T08:23:31.756Z,9.60
2022-10-25T08:25:59.300Z,9.60
2022-10-25T08:28:26.357Z,9.70
2022-10-25T08:30:56.222Z,9.70
2022-10-25T08:33:25.294Z,9.70
2022-10-25T08:35:52.302Z,9.80
2022-10-25T08:38:19.277Z,9.90
2022-10-25T08:41:00.588Z,10.00
2022-10-25T08:43:46.906Z,10.20
2022-10-25T08:46:28.829Z,10.60
2022-10-25T08:49:07.134Z,11.00
2022-10-25T08:51:38.418Z,11.50
2022-10-25T08:54:37.602Z,12.10
2022-10-25T08:57:17.097Z,12.60
2022-10-25T08:59:48.635Z,13.10
2022-10-25T09:02:39.551Z,13.60
2022-10-25T09:05:38.882Z,13.80
2022-10-25T09:08:16.653Z,14.20
2022-10-25T09:10:58.707Z,14.60
2022-10-25T09:13:33.016Z,14.90
2022-10-25T09:16:16.419Z,15.40
2022-10-25T09:18:55.014Z,15.50
2022-10-25T09:21:26.141Z,15.50
2022-10-25T09:24:04.971Z,15.90
2022-10-25T09:27:00.759Z,16.10
2022-10-25T09:29:33.398Z,16.20
2022-10-25T09:32:02.213Z,16.60
2022-10-25T09:34:35.330Z,16.90
2022-10-25T09:37:31.408Z,17.10
2022-10-25T09:40:06.980Z,17.30
2022-10-25T09:42:59.288Z,17.30
2022-10-25T09:45:32.539Z,17.30
2022-10-25T09:48:26.932Z,17.40
2022-10-25T09:51:27.484Z,17.40
2022-10-25T09:53:55.273Z,17.40
2022-10-25T09:56:22.181Z,17.40
2022-10-25T09:58:49.166Z,17.60
2022-10-25T10:01:21.446Z,17.70
2022-10-25T10:03:52.425Z,17.90
2022-10-25T10:06:32.386Z,18.00
2022-10-25T10:09:09.284Z,17.90
2022-10-25T10:11:37.047Z,18.00
2022-10-25T10:14:10.209Z,17.80
2022-10-25T10:16:45.150Z,17.40
2022-10-25T10:19:23.782Z,17.50
2022-10-25T10:22:00.089Z,17.30
2022-10-25T10:24:36.106Z,17.20
2022-10-25T10:27:07.018Z,17.60
2022-10-25T10:29:58.055Z,17.50
2022-10-25T10:32:29.993Z,18.30
2022-10-25T10:34:58.323Z,18.40
2022-10-25T10:37:28.198Z,18.80
2022-10-25T10:40:12.911Z,19.30
2022-10-25T10:42:43.109Z,19.40
2022-10-25T10:45:17.705Z,19.80
2022-10-25T10:47:50.271Z,19.90
2022-10-25T10:50:23.193Z,20.10
2022-10-25T10:53:14.735Z,20.40
2022-10-25T10:55:51.294Z,20.60
2022-10-25T10:58:39.961Z,20.60
2022-10-25T11:01:10.828Z,20.90
2022-10-25T11:03:59.208Z,20.30
2022-10-25T11:06:33.311Z,20.50
2022-10-25T11:09:19.495Z,20.50
2022-10-25T11:12:07.881Z,20.50
2022-10-25T11:14:34.940Z,20.80
2022-10-25T11:17:29.407Z,20.70
2022-10-25T11:20:08.837Z,21.10
2022-10-25T11:25:34.360Z,21.10
2022-10-25T11:28:21.681Z,20.70
2022-10-25T11:31:25.857Z,20.70
2022-10-25T11:34:17.976Z,20.90
2022-10-25T11:37:09.720Z,21.10
2022-10-25T11:39:54.018Z,21.40
2022-10-25T11:42:50.998Z,21.00
2022-10-25T11:45:36.070Z,20.70
2022-10-25T11:48:29.838Z,20.50
2022-10-25T11:51:25.260Z,20.20
2022-10-25T11:54:26.996Z,20.00
2022-10-25T11:57:22.051Z,19.90
2022-10-25T12:00:10.354Z,19.60
2022-10-25T12:02:55.554Z,19.40
2022-10-25T12:05:28.674Z,19.20
2022-10-25T12:08:08.026Z,18.90
2022-10-25T12:10:39.962Z,18.90
2022-10-25T12:13:16.163Z,19.20
2022-10-25T12:15:49.516Z,19.50
2022-10-25T12:18:36.635Z,19.50
2022-10-25T12:21:04.584Z,19.10
2022-10-25T12:23:44.152Z,18.90
2022-10-25T12:26:40.307Z,18.40
2022-10-25T12:29:17.413Z,18.40
2022-10-25T12:31:56.904Z,18.20
2022-10-25T12:34:37.952Z,18.00
2022-10-25T12:37:16.859Z,17.50
2022-10-25T12:39:45.433Z,17.10
2022-10-25T12:42:18.079Z,17.00
2022-10-25T12:47:28.602Z,17.00
2022-10-25T12:53:02.425Z,16.90
2022-10-25T12:56:07.292Z,17.10
2022-10-25T12:59:12.048Z,17.00
2022-10-25T13:01:50.684Z,17.10
2022-10-25T13:04:51.249Z,17.10
2022-10-25T13:07:19.167Z,17.00
2022-10-25T13:09:46.330Z,16.60
2022-10-25T13:12:15.971Z,16.50
2022-10-25T13:14:46.113Z,16.30
2022-10-25T13:17:19.182Z,16.20
2022-10-25T13:19:54.642Z,16.10
2022-10-25T13:22:28.426Z,16.00
2022-10-25T13:24:56.884Z,16.00
2022-10-25T13:27:25.599Z,15.90
2022-10-25T13:30:26.205Z,15.80
2022-10-25T13:33:22.826Z,15.70
2022-10-25T13:35:49.904Z,15.60
2022-10-25T13:38:26.166Z,15.50
2022-10-25T13:41:13.269Z,15.50
2022-10-25T13:44:02.699Z,15.50
2022-10-25T13:46:41.204Z,15.50
2022-10-25T13:49:33.070Z,15.60
2022-10-25T13:52:07.179Z,15.70
2022-10-25T13:54:43.684Z,15.80
2022-10-25T13:57:48.531Z,15.70
2022-10-25T14:00:21.751Z,15.80
2022-10-25T14:03:13.093Z,15.70
2022-10-25T14:05:55.294Z,15.50
2022-10-25T14:08:38.767Z,15.50
2022-10-25T14:11:18.923Z,15.60
2022-10-25T14:14:04.542Z,15.70
2022-10-25T14:16:53.376Z,15.70
2022-10-25T14:19:46.308Z,15.70
2022-10-25T14:22:23.340Z,15.80
2022-10-25T14:24:53.921Z,16.00
2022-10-25T14:27:33.875Z,16.30
2022-10-25T14:30:24.504Z,16.60
2022-10-25T14:32:54.788Z,16.60
2022-10-25T14:35:24.047Z,16.80
2022-10-25T14:37:51.101Z,17.10
2022-10-25T14:40:24.138Z,17.10
2022-10-25T14:42:54.723Z,16.90
2022-10-25T14:45:26.958Z,16.50
2022-10-25T14:47:53.820Z,16.10
2022-10-25T14:50:23.996Z,15.90
2022-10-25T14:52:52.234Z,15.70
2022-10-25T14:55:30.134Z,15.40
2022-10-25T14:57:59.605Z,15.10
2022-10-25T15:00:26.692Z,14.90
2022-10-25T15:03:01.392Z,14.80
2022-10-25T15:05:28.701Z,14.70
2022-10-25T15:07:57.547Z,14.70
2022-10-25T15:10:30.558Z,14.80
2022-10-25T15:13:04.329Z,14.80
2022-10-25T15:15:46.728Z,14.90
2022-10-25T15:18:32.225Z,14.90
2022-10-25T15:21:14.610Z,14.70
2022-10-25T15:23:44.229Z,14.50
2022-10-25T15:26:26.771Z,14.60
2022-10-25T15:29:01.771Z,14.60
2022-10-25T15:31:30.803Z,14.50
2022-10-25T15:34:05.715Z,14.50
2022-10-25T15:36:34.049Z,14.40
2022-10-25T15:39:09.374Z,14.30
2022-10-25T15:41:38.569Z,14.20
2022-10-25T15:44:05.476Z,14.10
2022-10-25T15:46:34.500Z,14.10
2022-10-25T15:49:04.714Z,14.00
2022-10-25T15:51:34.547Z,13.90
2022-10-25T15:54:01.661Z,13.80
2022-10-25T15:56:29.239Z,13.80
2022-10-25T15:58:58.756Z,13.70
2022-10-25T16:01:26.026Z,13.60
2022-10-25T16:03:53.041Z,13.60
2022-10-25T16:06:19.944Z,13.50
2022-10-25T16:08:46.849Z,13.40
2022-10-25T16:11:17.535Z,13.40
2022-10-25T16:13:48.764Z,13.20
2022-10-25T16:16:43.305Z,13.20
2022-10-25T16:19:15.106Z,13.10
2022-10-25T16:21:42.336Z,13.00
2022-10-25T16:24:09.849Z,12.90
2022-10-25T16:26:41.743Z,12.90
2022-10-25T16:29:17.052Z,12.90
2022-10-25T16:31:44.207Z,12.80
2022-10-25T16:34:11.654Z,12.70
2022-10-25T16:36:38.787Z,12.70
2022-10-25T16:39:07.770Z,12.60
2022-10-25T16:41:38.694Z,12.60
2022-10-25T16:44:06.212Z,12.60
2022-10-25T16:46:33.130Z,12.50
2022-10-25T16:49:02.003Z,12.50
2022-10-25T16:51:29.431Z,12.40
2022-10-25T16:53:57.361Z,12.40
2022-10-25T16:56:24.331Z,12.40
2022-10-25T16:58:51.298Z,12.30
2022-10-25T17:01:36.416Z,12.40
2022-10-25T17:04:05.450Z,12.40
2022-10-25T17:06:47.746Z,12.40
2022-10-25T17:09:14.756Z,12.40
2022-10-25T17:11:41.659Z,12.30
2022-10-25T17:14:12.115Z,12.40
2022-10-25T17:16:45.096Z,12.30
2022-10-25T17:19:12.870Z,12.30
2022-10-25T17:21:40.042Z,12.20
2022-10-25T17:24:09.589Z,12.20
2022-10-25T17:26:36.968Z,12.10
2022-10-25T17:29:04.184Z,12.10
2022-10-25T17:31:32.742Z,12.00
2022-10-25T17:34:03.548Z,11.90
2022-10-25T17:36:33.381Z,11.90
2022-10-25T17:39:01.085Z,11.80
2022-10-25T17:41:28.262Z,11.70
2022-10-25T17:43:56.889Z,11.70
2022-10-25T17:46:27.756Z,11.70
2022-10-25T17:48:56.584Z,11.70
2022-10-25T17:51:24.040Z,11.60
2022-10-25T17:53:54.207Z,11.70
2022-10-25T17:56:23.341Z,11.60
2022-10-25T17:58:51.159Z,11.60
2022-10-25T18:01:21.475Z,11.60
2022-10-25T18:03:48.576Z,11.60
2022-10-25T18:06:18.187Z,11.60
2022-10-25T18:08:48.275Z,11.50
2022-10-25T18:11:22.368Z,11.60
2022-10-25T18:13:53.872Z,11.40
2022-10-25T18:16:22.461Z,11.40
2022-10-25T18:18:49.540Z,11.40
2022-10-25T18:21:16.576Z,11.40
2022-10-25T18:23:44.151Z,11.50
2022-10-25T18:26:13.225Z,11.50
2022-10-25T18:28:40.340Z,11.50
2022-10-25T18:31:09.590Z,11.60
2022-10-25T18:33:38.772Z,11.60
2022-10-25T18:36:08.098Z,11.60
2022-10-25T18:38:35.354Z,11.50
2022-10-25T18:41:07.313Z,11.30
2022-10-25T18:43:34.321Z,11.40
2022-10-25T18:46:01.616Z,11.40
2022-10-25T18:48:28.831Z,11.50
2022-10-25T18:50:55.930Z,11.50
2022-10-25T18:53:22.883Z,11.50
2022-10-25T18:55:51.359Z,11.50
2022-10-25T18:58:18.363Z,11.60
2022-10-25T19:00:46.474Z,11.60
2022-10-25T19:03:15.110Z,11.70
2022-10-25T19:05:43.074Z,11.70
2022-10-25T19:08:11.648Z,11.70
2022-10-25T19:10:40.400Z,11.70
2022-10-25T19:13:08.785Z,11.70
2022-10-25T19:15:35.646Z,11.80
2022-10-25T19:18:02.520Z,11.90
2022-10-25T19:20:29.499Z,11.90
2022-10-25T19:22:58.726Z,12.00
2022-10-25T19:25:29.853Z,12.00
2022-10-25T19:27:57.126Z,12.00
2022-10-25T19:30:24.903Z,12.00
2022-10-25T19:32:52.063Z,12.00
2022-10-25T19:35:19.696Z,12.00
2022-10-25T19:37:46.996Z,12.00
2022-10-25T19:40:14.218Z,12.00
2022-10-25T19:42:41.097Z,12.00
2022-10-25T19:45:08.249Z,11.90
2022-10-25T19:47:35.998Z,12.00
2022-10-25T19:50:05.595Z,11.90
2022-10-25T19:52:38.698Z,12.00
2022-10-25T19:55:06.925Z,11.90
2022-10-25T19:57:35.056Z,11.90
2022-10-25T20:00:02.328Z,11.90
2022-10-25T20:02:29.693Z,11.90
2022-10-25T20:04:56.746Z,11.80
2022-10-25T20:07:23.644Z,11.90
2022-10-25T20:09:50.629Z,11.90
2022-10-25T20:12:17.581Z,11.90
2022-10-25T20:14:44.453Z,11.90
2022-10-25T20:17:13.294Z,11.80
2022-10-25T20:19:40.231Z,11.60
2022-10-25T20:22:07.152Z,11.50
2022-10-25T20:24:34.104Z,11.50
2022-10-25T20:27:01.995Z,11.50
2022-10-25T20:29:29.319Z,11.40
2022-10-25T20:31:56.267Z,11.40
2022-10-25T20:34:23.192Z,11.40
2022-10-25T20:36:50.167Z,11.40
2022-10-25T20:39:17.320Z,11.30
2022-10-25T20:41:44.667Z,11.30
2022-10-25T20:44:12.249Z,11.30
2022-10-25T20:46:39.196Z,11.40
2022-10-25T20:49:07.534Z,11.40
2022-10-25T20:51:35.141Z,11.40
2022-10-25T20:54:05.314Z,11.40
2022-10-25T20:56:32.220Z,11.40
2022-10-25T20:58:59.153Z,11.50
2022-10-25T21:01:26.179Z,11.50
2022-10-25T21:03:54.107Z,11.40
2022-10-25T21:06:21.014Z,11.40
2022-10-25T21:08:47.894Z,11.40
2022-10-25T21:11:14.858Z,11.40
2022-10-25T21:13:42.240Z,11.40
2022-10-25T21:16:14.167Z,11.40
2022-10-25T21:18:42.345Z,11.50
2022-10-25T21:21:13.184Z,11.50
2022-10-25T21:23:40.099Z,11.50
2022-10-25T21:26:08.052Z,11.50
2022-10-25T21:28:37.701Z,11.50
2022-10-25T21:31:15.317Z,11.50
2022-10-25T21:33:50.231Z,11.40
2022-10-25T21:36:18.974Z,11.40
2022-10-25T21:38:45.901Z,11.50
2022-10-25T21:41:19.830Z,11.70
2022-10-25T21:43:48.617Z,11.70
2022-10-25T21:46:17.721Z,11.80
2022-10-25T21:48:47.261Z,11.80
2022-10-25T21:51:14.896Z,11.80
2022-10-25T21:53:42.105Z,11.80
2022-10-25T21:56:17.930Z,11.80
2022-10-25T21:58:47.432Z,11.70
2022-10-25T22:01:16.875Z,11.80
2022-10-25T22:03:44.013Z,11.80
2022-10-25T22:06:13.719Z,11.70
2022-10-25T22:08:41.307Z,11.60
2022-10-25T22:11:12.589Z,11.60
2022-10-25T22:13:39.733Z,11.60
2022-10-25T22:16:12.709Z,11.60
2022-10-25T22:18:40.013Z,11.50
2022-10-25T22:21:09.248Z,11.50
2022-10-25T22:23:36.802Z,11.40
2022-10-25T22:26:09.208Z,11.40
2022-10-25T22:28:39.831Z,11.40
2022-10-25T22:31:17.860Z,11.40
2022-10-25T22:33:45.619Z,11.50
2022-10-25T22:36:14.903Z,11.50
2022-10-25T22:38:42.319Z,11.60
2022-10-25T22:41:14.107Z,11.50
2022-10-25T22:43:41.586Z,11.50
2022-10-25T22:46:11.626Z,11.30
2022-10-25T22:48:40.341Z,11.30
2022-10-25T22:51:08.340Z,11.30
2022-10-25T22:53:37.040Z,11.30
2022-10-25T22:56:25.319Z,11.30
2022-10-25T22:58:54.809Z,11.30
2022-10-25T23:01:27.528Z,11.30
2022-10-25T23:03:56.344Z,11.20
2022-10-25T23:06:26.516Z,11.30
2022-10-25T23:08:54.959Z,11.20
2022-10-25T23:11:24.571Z,11.30
2022-10-25T23:13:51.728Z,11.30
2022-10-25T23:16:19.196Z,11.20
2022-10-25T23:18:46.396Z,11.10
2022-10-25T23:21:25.030Z,11.10
2022-10-25T23:23:53.454Z,11.10
2022-10-25T23:26:25.688Z,11.20
2022-10-25T23:28:52.572Z,11.10
2022-10-25T23:31:19.812Z,11.20
2022-10-25T23:33:51.347Z,11.30
2022-10-25T23:36:19.836Z,11.30
2022-10-25T23:38:48.624Z,11.30
2022-10-25T23:41:16.584Z,11.40
2022-10-25T23:43:43.469Z,11.30
2022-10-25T23:46:11.324Z,11.40
2022-10-25T23:48:38.319Z,11.40
2022-10-25T23:51:10.275Z,11.40
2022-10-25T23:53:37.661Z,11.30
2022-10-25T23:56:07.546Z,11.30
2022-10-25T23:58:34.717Z,11.20
